Time;durP1;ratioP1;P1;durP2;ratioP2;P2;SDS_P1;SDS_P2;PMS_P1;PMS_P2;Temp;Humidity;BMP_temperature;BMP_pressure;BME280_temperature;BME280_humidity;BME280_pressure;Samples;Min_cycle;Max_cycle;Signal;HPM_P1;HPM_P2
2022/12/02 00:01:50;;;;;;;20.75;16.83;;;5.20;99.90;;;;;;6113206;23;20222;-73
2022/12/02 00:04:22;;;;;;;23.83;17.35;;;5.20;99.90;;;;;;6117194;23;20195;-73
2022/12/02 00:06:50;;;;;;;21.70;16.30;;;5.20;99.90;;;;;;6114933;23;20274;-73
2022/12/02 00:09:26;;;;;;;20.80;16.83;;;5.20;99.90;;;;;;6111641;23;20245;-73
2022/12/02 00:11:54;;;;;;;23.00;17.88;;;5.30;99.90;;;;;;6117696;23;20190;-73
2022/12/02 00:14:24;;;;;;;22.48;17.63;;;5.30;99.90;;;;;;6114243;23;20195;-73
2022/12/02 00:16:52;;;;;;;18.20;16.20;;;5.30;99.90;;;;;;6117994;23;20199;-73
2022/12/02 00:19:19;;;;;;;22.85;17.67;;;5.30;99.90;;;;;;6110786;23;20192;-73
2022/12/02 00:21:47;;;;;;;21.30;17.60;;;5.30;99.90;;;;;;6114263;23;20215;-73
2022/12/02 00:24:14;;;;;;;22.50;16.60;;;5.00;99.90;;;;;;6116921;23;20589;-73
2022/12/02 00:26:42;;;;;;;23.08;17.20;;;5.30;99.90;;;;;;6120006;23;20223;-73
2022/12/02 00:29:11;;;;;;;20.40;17.38;;;5.20;99.90;;;;;;6115350;23;20219;-73
2022/12/02 00:31:39;;;;;;;21.33;17.08;;;5.20;99.90;;;;;;6117801;23;20198;-72
2022/12/02 00:34:06;;;;;;;22.25;16.90;;;5.20;99.90;;;;;;6118959;23;20191;-72
2022/12/02 00:36:34;;;;;;;20.70;16.77;;;5.20;99.90;;;;;;6118029;23;20203;-73
2022/12/02 00:39:01;;;;;;;22.67;17.98;;;5.20;99.90;;;;;;6116107;23;20673;-72
2022/12/02 00:41:28;;;;;;;22.20;18.45;;;5.20;99.90;;;;;;6111134;23;20334;-72
2022/12/02 00:46:41;;;;;;;21.48;16.20;;;5.20;99.90;;;;;;6118339;23;20187;-72
2022/12/02 00:49:10;;;;;;;21.50;17.23;;;5.20;99.90;;;;;;6116616;23;20772;-72
2022/12/02 00:51:38;;;;;;;22.17;16.98;;;5.20;99.90;;;;;;6117355;23;20270;-72
2022/12/02 00:54:06;;;;;;;21.52;16.25;;;5.20;99.90;;;;;;6117343;23;20183;-72
2022/12/02 00:56:34;;;;;;;22.27;16.65;;;5.20;99.90;;;;;;6118470;23;20196;-72
2022/12/02 00:59:04;;;;;;;22.20;16.58;;;5.20;99.90;;;;;;6116323;23;20266;-72
2022/12/02 01:01:32;;;;;;;21.10;17.33;;;5.20;99.90;;;;;;6118487;23;20250;-72
2022/12/02 01:04:18;;;;;;;23.15;17.23;;;5.20;99.90;;;;;;6108873;23;20202;-72
2022/12/02 01:06:46;;;;;;;21.75;17.05;;;5.20;99.90;;;;;;6118576;23;20195;-72
2022/12/02 01:09:13;;;;;;;24.45;18.42;;;5.20;99.90;;;;;;6115879;23;20203;-72
2022/12/02 01:11:40;;;;;;;24.73;18.63;;;5.20;99.90;;;;;;6118059;23;20254;-72
2022/12/02 01:14:10;;;;;;;22.88;17.90;;;5.20;99.90;;;;;;6116510;23;20270;-72
2022/12/02 01:16:37;;;;;;;21.63;17.60;;;5.10;99.90;;;;;;6117621;23;20206;-72
2022/12/02 01:19:04;;;;;;;19.15;15.75;;;5.10;99.90;;;;;;6113854;23;20226;-72
2022/12/02 01:21:31;;;;;;;20.52;17.33;;;5.20;99.90;;;;;;6117788;23;20222;-72
2022/12/02 01:23:58;;;;;;;23.20;16.92;;;5.10;99.90;;;;;;6112567;23;20471;-72
2022/12/02 01:26:25;;;;;;;20.80;16.85;;;5.20;99.90;;;;;;6116673;23;20240;-72
2022/12/02 01:28:52;;;;;;;21.10;17.25;;;5.20;99.90;;;;;;6117372;23;20195;-72
2022/12/02 01:31:21;;;;;;;20.13;15.70;;;5.20;99.90;;;;;;6117591;23;20187;-72
2022/12/02 01:33:48;;;;;;;22.92;16.95;;;5.20;99.90;;;;;;6117612;23;20319;-72
2022/12/02 01:36:15;;;;;;;23.05;17.00;;;5.20;99.90;;;;;;6118158;23;20266;-72
2022/12/02 01:38:42;;;;;;;19.45;15.95;;;5.20;99.90;;;;;;6118155;23;20628;-72
2022/12/02 01:41:09;;;;;;;22.00;17.63;;;5.10;99.90;;;;;;6114926;23;20662;-72
2022/12/02 01:43:36;;;;;;;20.17;16.98;;;5.10;99.90;;;;;;6116018;23;20191;-72
2022/12/02 01:46:07;;;;;;;22.08;16.88;;;5.10;99.90;;;;;;6115924;23;20285;-72
2022/12/02 01:48:37;;;;;;;22.20;16.67;;;5.10;99.90;;;;;;6114484;23;20774;-72
2022/12/02 01:51:05;;;;;;;18.60;15.10;;;5.10;99.90;;;;;;6116995;23;20242;-72
2022/12/02 01:53:32;;;;;;;23.80;17.85;;;5.10;99.90;;;;;;6118161;23;20267;-72
2022/12/02 01:55:59;;;;;;;19.45;16.02;;;5.10;99.90;;;;;;6118716;23;20602;-72
2022/12/02 01:58:31;;;;;;;23.05;17.85;;;5.10;99.90;;;;;;6117279;23;20274;-72
2022/12/02 02:00:58;;;;;;;21.10;17.75;;;5.20;99.90;;;;;;6109698;23;20198;-72
2022/12/02 02:03:25;;;;;;;19.75;15.75;;;5.20;99.90;;;;;;6116319;23;20196;-72
2022/12/02 02:05:55;;;;;;;19.60;16.63;;;5.20;99.90;;;;;;6115837;23;20199;-72
2022/12/02 02:08:22;;;;;;;23.65;17.33;;;5.20;99.90;;;;;;6116585;23;20222;-72
2022/12/02 02:10:49;;;;;;;19.40;16.17;;;5.20;99.90;;;;;;6116178;23;20285;-72
2022/12/02 02:13:17;;;;;;;20.40;15.82;;;5.20;99.90;;;;;;6117475;23;20195;-72
2022/12/02 02:15:45;;;;;;;19.63;15.57;;;5.20;99.90;;;;;;6118284;23;20539;-73
2022/12/02 02:18:13;;;;;;;19.08;15.15;;;5.20;99.90;;;;;;6115043;23;20187;-73
2022/12/02 02:20:41;;;;;;;18.88;15.57;;;5.20;99.90;;;;;;6116239;23;20633;-72
2022/12/02 02:23:19;;;;;;;19.67;15.60;;;5.20;99.90;;;;;;6117378;23;20724;-72
2022/12/02 02:25:48;;;;;;;18.63;15.27;;;5.20;99.90;;;;;;6116628;23;20290;-72
2022/12/02 02:28:15;;;;;;;22.88;16.27;;;5.20;99.90;;;;;;6117006;23;20215;-73
2022/12/02 02:30:42;;;;;;;18.80;15.60;;;5.20;99.90;;;;;;6115497;23;20229;-72
2022/12/02 02:33:12;;;;;;;18.83;15.02;;;5.30;99.90;;;;;;6117446;23;20633;-72
2022/12/02 02:35:42;;;;;;;18.15;16.00;;;5.30;99.90;;;;;;6119331;23;20247;-72
2022/12/02 02:38:13;;;;;;;21.38;16.40;;;5.30;99.90;;;;;;6117080;23;20187;-72
2022/12/02 02:40:43;;;;;;;21.35;16.65;;;5.30;99.90;;;;;;6115543;23;20187;-73
2022/12/02 02:43:11;;;;;;;20.05;14.80;;;5.30;99.90;;;;;;6116797;23;20231;-72
2022/12/02 02:45:41;;;;;;;19.50;15.82;;;5.30;99.90;;;;;;6118412;23;20277;-72
2022/12/02 02:48:11;;;;;;;18.63;15.48;;;5.30;99.90;;;;;;6118128;23;20214;-72
2022/12/02 02:50:42;;;;;;;18.98;15.15;;;5.30;99.90;;;;;;6113924;23;20199;-75
2022/12/02 02:53:11;;;;;;;19.50;15.70;;;5.30;99.90;;;;;;6115074;23;20268;-73
2022/12/02 02:55:39;;;;;;;19.92;15.65;;;5.30;99.90;;;;;;6116418;23;20722;-72
2022/12/02 02:58:11;;;;;;;21.10;16.58;;;5.30;99.90;;;;;;6110278;23;20219;-73
2022/12/02 03:00:40;;;;;;;17.90;15.32;;;5.20;99.90;;;;;;6107341;23;20264;-73
2022/12/02 03:03:08;;;;;;;19.13;15.05;;;5.20;99.90;;;;;;6118082;23;20242;-73
2022/12/02 03:05:35;;;;;;;19.45;15.75;;;5.20;99.90;;;;;;6118263;23;20221;-73
2022/12/02 03:08:03;;;;;;;20.73;16.15;;;5.20;99.90;;;;;;6112914;23;20301;-72
2022/12/02 03:10:31;;;;;;;17.58;14.75;;;5.30;99.90;;;;;;6113472;23;20207;-73
2022/12/02 03:12:58;;;;;;;18.42;15.75;;;5.20;99.90;;;;;;6118120;23;20210;-72
2022/12/02 03:15:28;;;;;;;20.35;16.55;;;5.10;99.90;;;;;;6116047;23;20216;-72
2022/12/02 03:17:56;;;;;;;24.60;15.82;;;5.20;99.90;;;;;;6110615;23;20226;-72
2022/12/02 03:20:23;;;;;;;19.10;15.35;;;5.10;99.90;;;;;;6117434;23;20235;-72
2022/12/02 03:22:51;;;;;;;18.00;16.02;;;5.10;99.90;;;;;;6114167;23;20778;-73
2022/12/02 03:25:18;;;;;;;21.17;15.80;;;5.20;99.90;;;;;;6119016;23;20205;-73
2022/12/02 03:27:46;;;;;;;18.63;15.63;;;5.20;99.90;;;;;;6117556;23;20227;-73
2022/12/02 03:30:13;;;;;;;20.50;15.00;;;5.20;99.90;;;;;;6118027;23;20222;-72
2022/12/02 03:32:42;;;;;;;21.38;18.20;;;5.10;99.90;;;;;;6117509;23;20354;-73
2022/12/02 03:35:10;;;;;;;19.92;15.45;;;5.10;99.90;;;;;;6116807;23;20317;-73
2022/12/02 03:37:37;;;;;;;20.35;15.70;;;5.10;99.90;;;;;;6115474;23;20716;-73
2022/12/02 03:40:06;;;;;;;19.67;14.63;;;5.10;99.90;;;;;;6116803;23;20194;-72
2022/12/02 03:42:34;;;;;;;21.58;15.88;;;5.10;99.90;;;;;;6115282;23;20217;-72
2022/12/02 03:45:01;;;;;;;20.00;15.43;;;5.10;99.90;;;;;;6117959;23;20287;-73
2022/12/02 03:47:29;;;;;;;20.55;16.27;;;5.10;99.90;;;;;;6118045;23;20205;-72
2022/12/02 03:50:00;;;;;;;21.85;16.45;;;5.10;99.90;;;;;;6118639;23;20192;-72
2022/12/02 03:52:29;;;;;;;18.35;15.27;;;5.10;99.90;;;;;;6117641;23;20270;-73
2022/12/02 03:54:57;;;;;;;22.88;16.70;;;5.10;99.90;;;;;;6117751;23;20498;-73
2022/12/02 03:57:24;;;;;;;19.70;16.05;;;5.10;99.90;;;;;;6105883;23;20234;-73
2022/12/02 03:59:52;;;;;;;21.70;16.23;;;5.10;99.90;;;;;;6118176;23;20266;-73
2022/12/02 04:02:18;;;;;;;18.40;15.95;;;5.10;99.90;;;;;;6116976;23;20211;-73
2022/12/02 04:04:45;;;;;;;19.67;15.52;;;5.10;99.90;;;;;;6115847;23;20342;-73
2022/12/02 04:07:14;;;;;;;20.50;15.90;;;5.10;99.90;;;;;;6117157;23;20720;-73
2022/12/02 04:09:42;;;;;;;19.30;15.85;;;5.10;99.90;;;;;;6118468;23;20526;-73
2022/12/02 04:12:09;;;;;;;21.45;16.17;;;5.00;99.90;;;;;;6116120;23;20715;-73
2022/12/02 04:14:36;;;;;;;20.73;16.90;;;5.00;99.90;;;;;;6117967;23;20210;-73
2022/12/02 04:17:04;;;;;;;18.70;15.48;;;5.00;99.90;;;;;;6118662;23;20206;-73
2022/12/02 04:19:32;;;;;;;21.58;17.48;;;5.00;99.90;;;;;;6116597;23;21418;-72
2022/12/02 04:21:59;;;;;;;17.20;15.15;;;5.00;99.90;;;;;;6117323;23;20239;-72
2022/12/02 04:24:28;;;;;;;20.25;14.80;;;5.00;99.90;;;;;;6116570;23;20270;-72
2022/12/02 04:26:55;;;;;;;18.85;15.18;;;5.00;99.90;;;;;;6117055;23;20194;-73
2022/12/02 04:29:22;;;;;;;18.67;16.48;;;5.00;99.90;;;;;;6118987;23;20261;-72
2022/12/02 04:31:49;;;;;;;21.42;17.90;;;5.00;99.90;;;;;;6118957;23;20614;-73
2022/12/02 04:34:16;;;;;;;20.02;16.30;;;5.00;99.90;;;;;;6116339;23;21039;-73
2022/12/02 04:36:43;;;;;;;21.95;15.55;;;5.00;99.90;;;;;;6119370;23;20191;-72
2022/12/02 04:39:11;;;;;;;20.88;16.73;;;5.00;99.90;;;;;;6116968;23;20223;-72
2022/12/02 04:41:39;;;;;;;21.88;15.90;;;5.00;99.90;;;;;;6116723;23;20195;-72
2022/12/02 04:44:07;;;;;;;21.30;16.17;;;5.00;99.90;;;;;;6117318;23;20207;-72
2022/12/02 04:46:34;;;;;;;21.02;15.65;;;4.90;99.90;;;;;;6116148;23;20211;-72
2022/12/02 04:49:01;;;;;;;20.83;16.38;;;4.90;99.90;;;;;;6116525;23;20282;-72
2022/12/02 04:51:28;;;;;;;19.80;15.98;;;5.00;99.90;;;;;;6126458;23;20199;-72
2022/12/02 04:53:55;;;;;;;21.80;17.50;;;5.00;99.90;;;;;;6119576;23;20191;-72
2022/12/02 04:56:23;;;;;;;23.38;17.65;;;5.00;99.90;;;;;;6116848;23;20629;-72
2022/12/02 04:58:51;;;;;;;21.08;17.40;;;5.00;99.90;;;;;;6120081;23;20215;-72
2022/12/02 05:01:18;;;;;;;21.58;17.13;;;5.00;99.90;;;;;;6117611;23;20249;-72
2022/12/02 05:03:45;;;;;;;20.90;16.42;;;5.00;99.90;;;;;;6117428;23;20294;-72
2022/12/02 05:06:12;;;;;;;21.73;16.83;;;5.00;99.90;;;;;;6118602;23;20274;-72
2022/12/02 05:08:39;;;;;;;23.05;17.92;;;5.00;99.90;;;;;;6119372;23;20245;-72
2022/12/02 05:11:07;;;;;;;20.38;15.18;;;5.00;99.90;;;;;;6118114;23;20231;-72
2022/12/02 05:13:36;;;;;;;21.98;17.88;;;5.00;99.90;;;;;;6117521;23;20195;-72
2022/12/02 05:16:06;;;;;;;19.15;15.23;;;5.00;99.90;;;;;;6117760;23;20249;-72
2022/12/02 05:18:33;;;;;;;20.98;15.70;;;5.00;99.90;;;;;;6119709;23;20195;-72
2022/12/02 05:21:01;;;;;;;21.88;16.48;;;5.00;99.90;;;;;;6111716;23;20685;-72
2022/12/02 05:23:28;;;;;;;25.25;17.48;;;5.00;99.90;;;;;;6117121;23;20239;-72
2022/12/02 05:25:55;;;;;;;21.67;17.27;;;5.10;99.90;;;;;;6118057;23;20199;-72
2022/12/02 05:28:23;;;;;;;20.65;15.30;;;5.00;99.90;;;;;;6118988;23;20187;-72
2022/12/02 05:30:50;;;;;;;19.45;16.23;;;5.00;99.90;;;;;;6113237;23;20195;-72
2022/12/02 05:33:18;;;;;;;22.65;16.48;;;5.00;99.90;;;;;;6116980;23;20638;-72
2022/12/02 05:35:45;;;;;;;20.95;16.88;;;5.00;99.90;;;;;;6119040;23;20274;-72
2022/12/02 05:38:12;;;;;;;22.13;17.27;;;5.00;99.90;;;;;;6119917;23;20219;-72
2022/12/02 05:40:39;;;;;;;21.55;17.48;;;5.00;99.90;;;;;;6129075;23;20269;-72
2022/12/02 05:43:16;;;;;;;22.90;16.95;;;5.10;99.90;;;;;;6124932;23;20236;-72
2022/12/02 05:45:43;;;;;;;25.30;18.92;;;5.10;99.90;;;;;;6117518;23;20266;-72
2022/12/02 05:48:12;;;;;;;25.98;18.33;;;5.10;99.90;;;;;;6119561;23;20301;-72
2022/12/02 05:50:41;;;;;;;21.67;16.80;;;5.20;99.90;;;;;;6118338;23;20653;-72
2022/12/02 05:53:18;;;;;;;21.80;16.95;;;5.20;99.90;;;;;;6117681;23;20215;-72
2022/12/02 05:55:47;;;;;;;25.08;19.38;;;5.30;99.90;;;;;;6117123;23;20266;-72
2022/12/02 05:58:14;;;;;;;22.10;18.33;;;5.30;99.90;;;;;;6118815;23;20199;-72
2022/12/02 06:00:41;;;;;;;27.15;20.48;;;5.30;99.90;;;;;;6118824;23;20259;-73
2022/12/02 06:03:15;;;;;;;25.55;19.15;;;5.30;99.90;;;;;;6112841;23;20688;-72
2022/12/02 06:05:44;;;;;;;25.33;19.40;;;5.30;99.90;;;;;;6107929;23;20274;-71
2022/12/02 06:08:18;;;;;;;24.83;18.38;;;5.30;99.90;;;;;;6095626;23;20199;-72
2022/12/02 06:10:49;;;;;;;24.98;19.17;;;5.20;99.90;;;;;;6118432;23;20202;-72
2022/12/02 06:13:20;;;;;;;25.55;19.77;;;5.20;99.90;;;;;;6118742;23;20273;-71
2022/12/02 06:15:48;;;;;;;24.45;18.60;;;5.10;99.90;;;;;;6117026;23;20222;-72
2022/12/02 06:18:16;;;;;;;25.08;18.38;;;5.10;99.90;;;;;;6118002;23;20257;-72
2022/12/02 06:20:45;;;;;;;28.27;20.48;;;5.10;99.90;;;;;;6116732;23;20266;-72
2022/12/02 06:23:15;;;;;;;24.73;17.80;;;5.30;99.90;;;;;;6117400;23;20208;-71
2022/12/02 06:25:44;;;;;;;31.20;20.95;;;5.10;99.90;;;;;;6114236;23;20549;-72
2022/12/02 06:28:22;;;;;;;25.70;17.83;;;5.10;99.90;;;;;;6109587;23;20972;-72
2022/12/02 06:30:50;;;;;;;22.23;18.00;;;5.10;99.90;;;;;;6116504;23;20199;-72
2022/12/02 06:33:26;;;;;;;24.65;18.13;;;5.00;99.90;;;;;;6110344;23;20270;-72
2022/12/02 06:35:56;;;;;;;19.05;14.63;;;5.00;99.90;;;;;;6110432;23;20183;-81
2022/12/02 06:38:29;;;;;;;23.77;18.02;;;5.40;99.90;;;;;;6119902;23;20211;-78
2022/12/02 06:40:57;;;;;;;21.80;17.55;;;5.70;99.90;;;;;;6100231;23;20192;-78
2022/12/02 06:43:29;;;;;;;23.48;18.50;;;5.70;99.90;;;;;;6107857;23;20380;-78
2022/12/02 06:45:56;;;;;;;24.00;18.38;;;5.60;99.90;;;;;;6111615;23;20183;-78
2022/12/02 06:48:32;;;;;;;24.83;17.73;;;5.60;99.90;;;;;;6107122;23;20187;-79
2022/12/02 06:51:12;;;;;;;27.23;19.52;;;5.60;99.90;;;;;;6118664;23;20239;-80
2022/12/02 06:53:41;;;;;;;23.38;18.00;;;5.50;99.90;;;;;;6111775;23;20214;-79
2022/12/02 06:56:27;;;;;;;28.45;19.67;;;5.50;99.90;;;;;;6129293;23;20175;-82
2022/12/02 06:59:00;;;;;;;25.90;19.08;;;5.40;99.90;;;;;;6148547;23;20247;-83
2022/12/02 07:01:32;;;;;;;22.20;17.73;;;5.50;99.90;;;;;;6116985;23;20218;-84
2022/12/02 07:04:06;;;;;;;25.50;18.80;;;5.70;99.90;;;;;;6128663;23;20215;-81
2022/12/02 07:06:38;;;;;;;23.92;17.38;;;5.70;99.90;;;;;;6132278;23;20233;-81
2022/12/02 07:09:15;;;;;;;24.63;18.00;;;5.60;99.90;;;;;;6145645;22;21233;-79
2022/12/02 07:11:52;;;;;;;23.20;18.05;;;5.50;99.90;;;;;;6064567;23;20196;-80
2022/12/02 07:14:33;;;;;;;25.05;18.27;;;5.60;99.90;;;;;;6081947;23;20263;-80
2022/12/02 07:17:02;;;;;;;26.05;19.20;;;5.40;99.90;;;;;;6092101;23;20248;-81
2022/12/02 07:19:39;;;;;;;26.08;19.40;;;5.40;99.90;;;;;;6094097;23;20191;-80
2022/12/02 07:22:17;;;;;;;26.58;20.27;;;5.30;99.90;;;;;;6080483;23;20225;-78
2022/12/02 07:24:54;;;;;;;26.25;19.20;;;5.30;99.90;;;;;;6091603;23;20234;-80
2022/12/02 07:27:25;;;;;;;24.52;18.25;;;5.20;99.90;;;;;;6086822;23;20325;-81
2022/12/02 07:29:55;;;;;;;27.35;19.42;;;5.20;99.90;;;;;;6099737;23;20195;-81
2022/12/02 07:32:23;;;;;;;26.92;20.40;;;5.20;99.90;;;;;;6103456;23;20196;-82
2022/12/02 07:34:50;;;;;;;25.73;18.05;;;5.30;99.90;;;;;;6115905;23;20210;-82
2022/12/02 07:37:19;;;;;;;23.80;18.40;;;5.20;99.90;;;;;;6114289;23;20196;-81
2022/12/02 07:39:46;;;;;;;26.38;17.85;;;5.20;99.90;;;;;;6117346;22;20250;-81
2022/12/02 07:42:13;;;;;;;25.55;19.58;;;5.20;99.90;;;;;;6088134;22;20333;-82
2022/12/02 07:44:43;;;;;;;25.48;18.58;;;5.10;99.90;;;;;;6075902;23;20196;-82
2022/12/02 07:47:10;;;;;;;25.15;19.42;;;5.20;99.90;;;;;;6087354;23;20246;-82
2022/12/02 07:49:38;;;;;;;24.30;18.33;;;5.20;99.90;;;;;;6062954;23;20193;-83
2022/12/02 07:52:09;;;;;;;26.27;20.35;;;5.10;99.90;;;;;;6067016;23;20197;-80
2022/12/02 07:54:37;;;;;;;24.75;18.00;;;5.10;99.90;;;;;;6067636;23;20204;-81
2022/12/02 07:57:05;;;;;;;25.15;18.60;;;5.10;99.90;;;;;;6081507;23;20190;-81
2022/12/02 07:59:33;;;;;;;26.33;18.67;;;5.10;99.90;;;;;;6082177;23;20195;-83
2022/12/02 08:04:59;;;;;;;27.33;18.08;;;5.10;99.90;;;;;;6113459;23;20204;-81
2022/12/02 08:07:27;;;;;;;24.20;19.05;;;5.10;99.90;;;;;;6113980;23;20597;-82
2022/12/02 08:12:31;;;;;;;25.67;18.75;;;5.00;99.90;;;;;;6108079;22;20216;-80
2022/12/02 08:14:59;;;;;;;22.40;17.75;;;5.00;99.90;;;;;;6062604;22;20261;-80
2022/12/02 08:17:30;;;;;;;24.88;18.15;;;5.20;99.90;;;;;;6088433;22;20224;-81
2022/12/02 08:19:57;;;;;;;22.33;17.38;;;5.30;99.90;;;;;;6089802;23;20203;-81
2022/12/02 08:22:25;;;;;;;27.75;19.30;;;5.00;99.90;;;;;;6087188;23;20201;-81
2022/12/02 08:24:54;;;;;;;24.27;17.98;;;5.10;99.90;;;;;;6070242;23;20200;-83
2022/12/02 08:27:21;;;;;;;22.33;17.83;;;5.00;99.90;;;;;;6116841;22;20238;-80
2022/12/02 08:32:41;;;;;;;23.73;17.05;;;5.10;99.90;;;;;;6117519;22;20207;-81
2022/12/02 08:37:42;;;;;;;24.38;17.33;;;5.00;99.90;;;;;;6008783;23;20217;-82
2022/12/02 08:42:41;;;;;;;24.77;18.60;;;5.00;99.90;;;;;;6004267;23;20260;-81
2022/12/02 08:45:11;;;;;;;23.20;17.15;;;4.70;99.90;;;;;;6075797;22;20248;-81
2022/12/02 08:47:39;;;;;;;24.30;17.80;;;5.00;99.90;;;;;;6028296;23;20193;-81
2022/12/02 08:50:12;;;;;;;21.33;15.93;;;4.90;99.90;;;;;;6026245;23;20186;-81
2022/12/02 08:52:40;;;;;;;20.02;16.02;;;5.20;99.90;;;;;;6036601;23;20186;-82
2022/12/02 08:55:10;;;;;;;21.08;16.00;;;4.90;99.90;;;;;;6045853;23;20186;-81
2022/12/02 08:57:38;;;;;;;23.48;17.20;;;4.90;99.90;;;;;;6044961;22;20212;-80
2022/12/02 09:00:10;;;;;;;19.48;16.85;;;4.90;99.90;;;;;;6086079;23;20184;-80
2022/12/02 09:02:38;;;;;;;19.00;15.80;;;4.90;99.90;;;;;;6098870;22;20314;-83
2022/12/02 09:05:06;;;;;;;21.27;15.00;;;5.10;99.90;;;;;;6083885;23;20228;-80
2022/12/02 09:07:39;;;;;;;20.13;15.73;;;5.00;99.90;;;;;;6082947;23;20173;-81
2022/12/02 09:10:09;;;;;;;17.13;14.00;;;4.90;99.90;;;;;;6084962;22;20280;-81
2022/12/02 09:12:37;;;;;;;18.55;15.18;;;5.00;99.90;;;;;;6074400;23;20185;-81
2022/12/02 09:15:06;;;;;;;20.83;16.20;;;4.80;99.90;;;;;;6084665;23;20161;-80
2022/12/02 09:17:47;;;;;;;21.48;16.48;;;5.00;99.90;;;;;;6084044;23;20662;-80
2022/12/02 09:20:15;;;;;;;19.63;16.25;;;5.30;99.90;;;;;;6082624;22;20231;-81
2022/12/02 09:22:45;;;;;;;20.90;14.90;;;5.10;99.90;;;;;;6088610;23;20200;-80
2022/12/02 09:25:13;;;;;;;19.52;14.18;;;5.20;99.90;;;;;;6056215;23;20232;-80
2022/12/02 09:30:23;;;;;;;17.60;14.13;;;4.90;99.90;;;;;;5996801;23;20198;-81
2022/12/02 09:35:22;;;;;;;19.10;15.20;;;4.90;99.90;;;;;;6060448;23;20188;-80
2022/12/02 09:40:26;;;;;;;15.63;13.90;;;5.00;99.90;;;;;;6077184;22;20234;-81
2022/12/02 09:42:54;;;;;;;16.23;14.07;;;5.00;99.90;;;;;;6085893;23;20192;-81
2022/12/02 09:45:21;;;;;;;13.48;11.93;;;5.00;99.90;;;;;;6077367;23;20247;-81
2022/12/02 09:47:48;;;;;;;14.50;12.30;;;5.30;99.90;;;;;;6079685;23;20228;-81
2022/12/02 09:50:17;;;;;;;15.05;11.85;;;5.10;99.90;;;;;;6082804;23;20200;-81
2022/12/02 09:52:45;;;;;;;15.52;13.77;;;5.10;99.90;;;;;;6080255;23;20176;-81
2022/12/02 09:55:15;;;;;;;13.82;12.13;;;5.10;99.90;;;;;;6074258;23;20192;-82
2022/12/02 09:57:44;;;;;;;14.82;12.20;;;5.10;99.90;;;;;;6068320;22;20267;-82
2022/12/02 10:00:22;;;;;;;15.70;12.57;;;5.20;99.90;;;;;;6077302;22;20220;-82
2022/12/02 10:02:51;;;;;;;14.35;12.82;;;5.30;99.90;;;;;;6084583;22;20220;-81
2022/12/02 10:05:22;;;;;;;14.27;12.50;;;5.00;99.90;;;;;;6101834;22;20204;-80
2022/12/02 10:10:27;;;;;;;15.45;11.35;;;5.40;99.90;;;;;;6074461;22;20213;-83
2022/12/02 10:12:55;;;;;;;16.15;12.10;;;5.40;99.90;;;;;;6046502;23;20193;-82
2022/12/02 10:15:25;;;;;;;13.80;12.05;;;5.40;99.90;;;;;;6053182;23;20251;-82
2022/12/02 10:17:54;;;;;;;15.38;11.05;;;5.50;99.90;;;;;;6050648;23;20190;-82
2022/12/02 10:20:23;;;;;;;14.00;10.95;;;5.50;99.90;;;;;;6052409;23;20194;-82
2022/12/02 10:23:13;;;;;;;13.75;11.57;;;5.40;99.90;;;;;;6029903;23;20178;-82
2022/12/02 10:25:43;;;;;;;14.00;11.57;;;5.40;99.90;;;;;;6085913;23;20220;-81
2022/12/02 10:28:30;;;;;;;14.10;10.55;;;5.40;99.90;;;;;;6097828;23;20176;-82
2022/12/02 10:31:03;;;;;;;14.43;11.50;;;5.30;99.90;;;;;;6106820;23;20225;-81
2022/12/02 10:33:40;;;;;;;17.88;11.77;;;5.30;99.90;;;;;;6106435;23;20180;-82
2022/12/02 10:36:09;;;;;;;13.40;10.73;;;5.30;99.90;;;;;;6100764;23;20188;-82
2022/12/02 10:38:39;;;;;;;10.73;9.63;;;5.30;99.90;;;;;;6108175;23;20188;-82
2022/12/02 10:41:19;;;;;;;12.13;10.82;;;5.30;99.90;;;;;;6104646;23;20176;-82
2022/12/02 10:44:05;;;;;;;10.82;9.50;;;5.40;99.90;;;;;;6105389;23;20711;-82
2022/12/02 10:46:32;;;;;;;11.00;9.90;;;5.30;99.90;;;;;;6112688;23;20188;-82
2022/12/02 10:49:27;;;;;;;10.00;9.00;;;5.30;99.90;;;;;;6102084;23;20189;-82
2022/12/02 10:51:58;;;;;;;9.85;8.85;;;5.20;99.90;;;;;;6082669;23;20200;-79
2022/12/02 10:54:35;;;;;;;11.02;8.90;;;5.20;99.90;;;;;;6080807;23;20219;-81
2022/12/02 10:57:04;;;;;;;12.18;9.18;;;5.20;99.90;;;;;;6099197;23;20200;-81
2022/12/02 10:59:33;;;;;;;8.93;8.02;;;5.10;99.90;;;;;;6095977;23;20232;-81
2022/12/02 11:02:01;;;;;;;8.70;7.80;;;5.10;99.90;;;;;;6099877;23;20606;-79
2022/12/02 11:04:29;;;;;;;8.30;7.25;;;5.00;99.90;;;;;;6083440;23;20218;-79
2022/12/02 11:06:57;;;;;;;8.40;7.50;;;5.00;99.90;;;;;;6089453;23;20211;-79
2022/12/02 11:09:26;;;;;;;11.80;9.27;;;5.00;99.90;;;;;;6090258;23;20693;-79
2022/12/02 11:11:53;;;;;;;9.60;7.80;;;5.00;99.90;;;;;;6092090;23;20211;-80
2022/12/02 11:14:55;;;;;;;10.07;8.90;;;5.00;99.90;;;;;;6097275;23;20173;-80
2022/12/02 11:17:50;;;;;;;10.70;8.45;;;5.10;99.90;;;;;;6077033;23;20226;-79
2022/12/02 11:20:37;;;;;;;9.02;8.00;;;5.10;99.90;;;;;;6104819;23;20224;-80
2022/12/02 11:23:14;;;;;;;10.05;8.82;;;5.10;99.90;;;;;;6097808;23;20189;-80
2022/12/02 11:25:59;;;;;;;9.40;8.40;;;5.10;99.90;;;;;;6100559;23;20212;-80
2022/12/02 11:28:35;;;;;;;8.38;7.57;;;5.10;99.90;;;;;;6075820;22;20226;-80
2022/12/02 11:31:20;;;;;;;7.95;7.15;;;5.10;99.90;;;;;;6105922;22;20207;-78
2022/12/02 11:34:26;;;;;;;8.63;7.78;;;5.10;99.90;;;;;;6095493;23;20269;-80
2022/12/02 11:37:47;;;;;;;9.40;8.50;;;5.10;99.90;;;;;;6118407;23;20254;-80
2022/12/02 11:40:59;;;;;;;8.50;7.70;;;5.00;99.90;;;;;;6109031;23;20274;-80
2022/12/02 11:44:05;;;;;;;7.88;7.10;;;5.10;99.90;;;;;;6091940;23;20198;-80
2022/12/02 11:46:46;;;;;;;8.50;7.45;;;5.10;99.90;;;;;;6104722;23;20664;-81
2022/12/02 11:49:26;;;;;;;6.93;6.22;;;5.00;99.90;;;;;;6120087;23;20195;-81
2022/12/02 11:52:05;;;;;;;7.35;6.65;;;5.00;99.90;;;;;;6110864;23;20203;-82
2022/12/02 11:54:44;;;;;;;7.40;6.70;;;5.00;99.90;;;;;;6122304;23;20184;-79
2022/12/02 11:57:18;;;;;;;9.00;8.10;;;5.00;99.90;;;;;;6113077;23;20184;-81
2022/12/02 11:59:46;;;;;;;8.63;7.57;;;5.00;99.90;;;;;;6098427;23;20184;-81
2022/12/02 12:02:16;;;;;;;7.93;7.20;;;5.10;99.90;;;;;;6110999;23;20199;-81
2022/12/02 12:05:04;;;;;;;7.32;6.57;;;5.00;99.90;;;;;;6092654;22;20305;-80
2022/12/02 12:07:46;;;;;;;7.95;7.22;;;5.00;99.90;;;;;;6075081;23;20226;-80
2022/12/02 12:10:25;;;;;;;7.60;6.60;;;5.00;99.90;;;;;;6113200;23;20200;-80
2022/12/02 12:13:13;;;;;;;8.65;7.75;;;5.00;99.90;;;;;;6103390;23;20203;-79
2022/12/02 12:15:55;;;;;;;8.77;7.75;;;5.00;99.90;;;;;;6112357;23;20188;-79
2022/12/02 12:21:05;;;;;;;8.43;7.35;;;5.00;99.90;;;;;;6030574;23;20225;-81
2022/12/02 12:23:36;;;;;;;7.53;6.72;;;5.10;99.90;;;;;;6000480;23;20317;-80
2022/12/02 12:26:06;;;;;;;8.05;7.35;;;5.10;99.90;;;;;;6028789;23;20220;-79
2022/12/02 12:28:35;;;;;;;7.15;6.50;;;5.10;99.90;;;;;;6013653;23;20252;-79
2022/12/02 12:31:05;;;;;;;6.82;6.13;;;5.10;99.90;;;;;;6006364;23;20195;-79
2022/12/02 12:33:32;;;;;;;8.50;7.63;;;5.10;99.90;;;;;;6016372;23;20178;-79
2022/12/02 12:36:05;;;;;;;7.55;6.88;;;5.10;99.90;;;;;;6019807;23;20229;-79
2022/12/02 12:38:33;;;;;;;7.47;6.78;;;5.10;99.90;;;;;;6024325;23;20708;-79
2022/12/02 12:41:01;;;;;;;7.15;6.47;;;5.20;99.90;;;;;;5991238;23;20221;-79
2022/12/02 12:43:29;;;;;;;6.30;5.70;;;5.20;99.90;;;;;;6018660;23;20194;-80
2022/12/02 12:45:57;;;;;;;6.78;6.07;;;5.30;99.90;;;;;;6020030;23;20221;-79
2022/12/02 12:48:24;;;;;;;8.40;7.25;;;5.30;99.90;;;;;;6018745;23;20178;-80
2022/12/02 12:50:52;;;;;;;7.03;6.32;;;5.30;99.90;;;;;;6002140;23;20182;-79
2022/12/02 12:53:21;;;;;;;8.75;7.45;;;5.30;99.90;;;;;;6013107;23;20182;-80
2022/12/02 12:55:49;;;;;;;7.25;6.55;;;5.20;99.90;;;;;;6024655;23;20238;-81
2022/12/02 12:58:16;;;;;;;8.93;8.05;;;5.20;99.90;;;;;;6001120;23;20185;-80
2022/12/02 13:00:44;;;;;;;7.50;6.80;;;5.20;99.90;;;;;;6091812;22;20288;-81
2022/12/02 13:03:12;;;;;;;13.80;8.10;;;5.20;99.90;;;;;;6111265;23;20203;-81
2022/12/02 13:05:40;;;;;;;10.65;7.88;;;5.10;99.90;;;;;;6111627;23;20242;-82
2022/12/02 13:08:08;;;;;;;7.78;6.97;;;5.10;99.90;;;;;;6108741;22;20283;-82
2022/12/02 13:10:50;;;;;;;7.80;7.00;;;5.10;99.90;;;;;;6057510;23;20193;-82
2022/12/02 13:13:17;;;;;;;8.50;6.97;;;5.10;99.90;;;;;;6035054;23;20224;-81
2022/12/02 13:15:45;;;;;;;9.73;8.80;;;5.00;99.90;;;;;;6052033;23;20181;-82
2022/12/02 13:18:12;;;;;;;9.13;8.30;;;5.30;99.90;;;;;;6056919;23;20231;-82
2022/12/02 13:20:39;;;;;;;9.18;8.27;;;5.00;99.90;;;;;;6058357;23;20236;-82
2022/12/02 13:23:06;;;;;;;7.72;7.00;;;5.10;99.90;;;;;;6059061;23;20173;-81
2022/12/02 13:25:36;;;;;;;8.80;8.00;;;5.10;99.90;;;;;;6042550;22;20248;-82
2022/12/02 13:28:05;;;;;;;8.60;7.75;;;5.10;99.90;;;;;;5999452;23;20175;-82